createdAt,value
2018-12-07T00:01:52.809Z,87.71
2018-12-07T00:04:28.513Z,88.02
2018-12-07T00:07:04.392Z,88.35
2018-12-07T00:09:40.177Z,87.89
2018-12-07T00:12:15.891Z,88.47
2018-12-07T00:14:51.657Z,88.01
2018-12-07T00:17:27.848Z,87.94
2018-12-07T00:20:04.064Z,88.07
2018-12-07T00:22:39.933Z,88.09
2018-12-07T00:25:15.759Z,88.49
2018-12-07T00:27:51.597Z,88.32
2018-12-07T00:30:27.372Z,87.84
2018-12-07T00:33:03.098Z,88.10
2018-12-07T00:35:38.936Z,88.60
2018-12-07T00:38:14.704Z,88.68
2018-12-07T00:40:50.694Z,88.61
2018-12-07T00:43:26.878Z,88.45
2018-12-07T00:46:02.811Z,88.17
2018-12-07T00:48:38.620Z,88.11
2018-12-07T00:51:14.435Z,88.39
2018-12-07T00:53:50.189Z,88.37
2018-12-07T00:56:26.021Z,88.43
2018-12-07T00:59:01.739Z,88.98
2018-12-07T01:01:37.751Z,88.48
2018-12-07T01:04:13.803Z,88.25
2018-12-07T01:06:50.396Z,88.58
2018-12-07T01:09:26.089Z,88.04
2018-12-07T01:12:01.876Z,88.64
2018-12-07T01:14:37.590Z,88.60
2018-12-07T01:17:13.449Z,89.02
2018-12-07T01:19:50.201Z,88.96
2018-12-07T01:22:25.861Z,88.84
2018-12-07T01:25:01.828Z,89.21
2018-12-07T01:27:37.721Z,88.41
2018-12-07T01:30:13.788Z,88.48
2018-12-07T01:32:49.897Z,88.30
2018-12-07T01:35:25.687Z,88.33
2018-12-07T01:38:01.395Z,88.07
2018-12-07T01:40:37.287Z,88.75
2018-12-07T01:43:13.102Z,88.44
2018-12-07T01:45:48.994Z,89.02
2018-12-07T01:48:24.707Z,88.93
2018-12-07T01:51:00.594Z,89.09
2018-12-07T01:53:36.469Z,88.77
2018-12-07T01:56:12.228Z,88.64
2018-12-07T01:58:48.025Z,88.07
2018-12-07T02:01:23.671Z,87.84
2018-12-07T02:03:59.488Z,88.04
2018-12-07T02:06:35.259Z,88.50
2018-12-07T02:09:11.048Z,88.56
2018-12-07T02:11:47.187Z,88.76
2018-12-07T02:14:23.125Z,89.31
2018-12-07T02:16:58.967Z,88.97
2018-12-07T02:19:34.706Z,88.78
2018-12-07T02:22:10.713Z,88.46
2018-12-07T02:24:46.451Z,88.05
2018-12-07T02:27:22.285Z,87.84
2018-12-07T02:29:57.984Z,88.03
2018-12-07T02:32:33.732Z,88.17
2018-12-07T02:35:09.517Z,86.74
2018-12-07T02:37:45.238Z,86.36
2018-12-07T02:40:21.042Z,86.49
2018-12-07T02:42:58.326Z,87.11
2018-12-07T02:45:34.049Z,87.21
2018-12-07T02:48:09.770Z,86.80
2018-12-07T02:50:45.658Z,86.51
2018-12-07T02:53:21.418Z,86.39
2018-12-07T02:55:57.235Z,86.15
2018-12-07T02:58:33.248Z,86.48
2018-12-07T03:01:09.080Z,86.74
2018-12-07T03:03:44.759Z,86.63
2018-12-07T03:06:20.549Z,87.00
2018-12-07T03:08:56.261Z,86.89
2018-12-07T03:11:33.031Z,86.89
2018-12-07T03:14:08.844Z,87.25
2018-12-07T03:16:44.691Z,87.03
2018-12-07T03:19:20.603Z,87.44
2018-12-07T03:21:56.440Z,87.72
2018-12-07T03:24:32.355Z,87.79
2018-12-07T03:27:08.152Z,88.09
2018-12-07T03:29:43.853Z,88.30
2018-12-07T03:32:19.773Z,88.19
2018-12-07T03:34:55.607Z,88.18
2018-12-07T03:37:31.485Z,88.17
2018-12-07T03:40:07.854Z,88.56
2018-12-07T03:42:43.696Z,87.76
2018-12-07T03:45:19.470Z,88.70
2018-12-07T03:47:55.187Z,88.87
2018-12-07T03:50:30.990Z,89.01
2018-12-07T03:53:06.943Z,88.66
2018-12-07T03:55:43.001Z,89.06
2018-12-07T03:58:18.876Z,88.79
2018-12-07T04:00:54.669Z,88.94
2018-12-07T04:03:30.376Z,89.08
2018-12-07T04:06:06.720Z,89.13
2018-12-07T04:08:42.565Z,89.38
2018-12-07T04:11:18.293Z,88.88
2018-12-07T04:13:54.033Z,88.90
2018-12-07T04:16:29.753Z,89.01
2018-12-07T04:19:05.697Z,88.96
2018-12-07T04:21:41.352Z,88.75
2018-12-07T04:24:17.206Z,88.38
2018-12-07T04:26:53.715Z,89.17
2018-12-07T04:29:30.388Z,89.14
2018-12-07T04:32:06.337Z,89.75
2018-12-07T04:34:43.095Z,89.50
2018-12-07T04:40:00.540Z,89.97
2018-12-07T04:42:36.321Z,90.02
2018-12-07T04:45:12.189Z,89.39
2018-12-07T04:47:48.327Z,89.64
2018-12-07T04:50:24.297Z,89.26
2018-12-07T04:53:00.952Z,89.52
2018-12-07T04:55:36.774Z,89.56
2018-12-07T04:58:12.678Z,89.54
2018-12-07T05:00:48.354Z,89.22
2018-12-07T05:03:24.088Z,88.95
2018-12-07T05:05:59.805Z,89.01
2018-12-07T05:08:35.642Z,89.40
2018-12-07T05:11:11.397Z,89.31
2018-12-07T05:13:47.150Z,89.57
2018-12-07T05:16:23.069Z,89.58
2018-12-07T05:18:59.018Z,89.11
2018-12-07T05:21:34.746Z,89.46
2018-12-07T05:24:10.690Z,89.09
2018-12-07T05:26:46.428Z,89.11
2018-12-07T05:29:22.967Z,89.04
2018-12-07T05:31:58.875Z,88.98
2018-12-07T05:34:34.647Z,88.95
2018-12-07T05:37:10.322Z,88.92
2018-12-07T05:39:46.297Z,89.17
2018-12-07T05:42:22.063Z,88.96
2018-12-07T05:44:57.860Z,88.35
2018-12-07T05:47:33.516Z,88.80
2018-12-07T05:50:09.521Z,89.03
2018-12-07T05:52:45.429Z,88.68
2018-12-07T05:55:21.258Z,88.40
2018-12-07T05:57:57.173Z,88.35
2018-12-07T06:00:32.962Z,88.34
2018-12-07T06:03:08.720Z,88.50
2018-12-07T06:05:44.374Z,88.89
2018-12-07T06:08:20.176Z,88.93
2018-12-07T06:10:56.526Z,88.31
2018-12-07T06:13:33.990Z,88.27
2018-12-07T06:16:09.951Z,88.22
2018-12-07T06:18:45.636Z,88.21
2018-12-07T06:21:21.412Z,88.33
2018-12-07T06:23:57.323Z,87.73
2018-12-07T06:26:33.410Z,87.73
2018-12-07T06:29:09.250Z,87.58
2018-12-07T06:31:45.246Z,88.05
2018-12-07T06:34:21.070Z,87.90
2018-12-07T06:36:56.864Z,87.89
2018-12-07T06:39:32.628Z,87.58
2018-12-07T06:42:08.549Z,87.50
2018-12-07T06:44:44.400Z,87.25
2018-12-07T06:47:20.150Z,86.84
2018-12-07T06:49:55.865Z,87.25
2018-12-07T06:52:31.702Z,86.83
2018-12-07T06:55:07.801Z,87.21
2018-12-07T06:57:43.695Z,87.59
2018-12-07T07:00:19.596Z,87.44
2018-12-07T07:02:55.458Z,86.89
2018-12-07T07:05:31.223Z,86.82
2018-12-07T07:08:07.868Z,87.09
2018-12-07T07:10:43.776Z,87.44
2018-12-07T07:13:19.795Z,87.51
2018-12-07T07:15:55.749Z,87.23
2018-12-07T07:18:31.461Z,87.41
2018-12-07T07:21:07.376Z,87.48
2018-12-07T07:23:43.178Z,87.76
2018-12-07T07:26:19.133Z,88.12
2018-12-07T07:28:55.120Z,88.06
2018-12-07T07:31:31.217Z,87.67
2018-12-07T07:34:07.172Z,87.93
2018-12-07T07:36:43.008Z,87.82
2018-12-07T07:39:18.862Z,87.80
2018-12-07T07:41:54.680Z,87.58
2018-12-07T07:44:30.563Z,87.39
2018-12-07T07:47:06.481Z,87.57
2018-12-07T07:49:42.283Z,87.23
2018-12-07T07:52:18.095Z,87.66
2018-12-07T07:54:54.092Z,87.12
2018-12-07T07:57:29.933Z,87.50
2018-12-07T08:00:06.884Z,87.18
2018-12-07T08:02:42.716Z,87.10
2018-12-07T08:05:18.469Z,86.97
2018-12-07T08:07:55.626Z,87.22
2018-12-07T08:10:31.647Z,87.80
2018-12-07T08:13:07.514Z,87.22
2018-12-07T08:15:43.341Z,86.93
2018-12-07T08:18:19.150Z,87.76
2018-12-07T08:20:55.192Z,87.24
2018-12-07T08:23:31.041Z,87.08
2018-12-07T08:26:06.946Z,87.13
2018-12-07T08:28:42.731Z,87.15
2018-12-07T08:31:18.579Z,85.78
2018-12-07T08:33:54.784Z,86.10
2018-12-07T08:36:30.525Z,84.46
2018-12-07T08:39:11.019Z,85.45
2018-12-07T08:41:46.939Z,85.64
2018-12-07T08:44:22.633Z,84.90
2018-12-07T08:46:58.462Z,83.91
2018-12-07T08:49:39.401Z,84.38
2018-12-07T08:52:15.354Z,82.54
2018-12-07T08:54:51.296Z,84.25
2018-12-07T08:57:27.072Z,81.49
2018-12-07T09:00:02.846Z,81.19
2018-12-07T09:02:39.619Z,82.80
2018-12-07T09:05:16.062Z,82.02
2018-12-07T09:07:51.807Z,80.04
2018-12-07T09:10:27.901Z,79.71
2018-12-07T09:13:03.582Z,78.65
2018-12-07T09:15:40.735Z,79.17
2018-12-07T09:18:16.463Z,79.39
2018-12-07T09:20:54.124Z,79.63
2018-12-07T09:23:30.052Z,80.92
2018-12-07T09:26:05.827Z,79.07
2018-12-07T09:28:42.541Z,78.51
2018-12-07T09:31:18.353Z,79.53
2018-12-07T09:33:54.237Z,77.31
2018-12-07T09:36:30.001Z,77.03
2018-12-07T09:39:09.973Z,77.51
2018-12-07T09:41:45.777Z,71.47
2018-12-07T09:44:21.450Z,69.86
2018-12-07T09:46:57.442Z,68.36
2018-12-07T09:49:33.397Z,66.39
2018-12-07T09:52:09.250Z,62.81
2018-12-07T09:54:45.168Z,61.97
2018-12-07T09:57:20.826Z,58.73
2018-12-07T09:59:56.785Z,59.51
2018-12-07T10:02:32.764Z,62.47
2018-12-07T10:05:08.809Z,57.83
2018-12-07T10:07:45.344Z,52.13
2018-12-07T10:10:21.175Z,46.75
2018-12-07T10:12:56.821Z,50.96
2018-12-07T10:15:32.744Z,48.30
2018-12-07T10:18:08.728Z,53.71
2018-12-07T10:20:44.692Z,57.52
2018-12-07T10:23:20.486Z,61.22
2018-12-07T10:25:56.457Z,61.13
2018-12-07T10:28:32.354Z,61.61
2018-12-07T10:31:08.241Z,63.35
2018-12-07T10:33:44.177Z,66.75
2018-12-07T10:36:19.990Z,66.86
2018-12-07T10:38:55.777Z,67.20
2018-12-07T10:41:31.859Z,67.41
2018-12-07T10:44:07.708Z,65.88
2018-12-07T10:46:43.856Z,65.58
2018-12-07T10:49:19.739Z,66.35
2018-12-07T10:51:55.757Z,68.55
2018-12-07T10:54:31.809Z,68.10
2018-12-07T10:57:07.572Z,68.62
2018-12-07T10:59:43.608Z,68.75
2018-12-07T11:02:24.602Z,67.76
2018-12-07T11:05:05.697Z,67.33
2018-12-07T11:07:46.692Z,68.82
2018-12-07T11:10:27.653Z,70.01
2018-12-07T11:13:09.437Z,70.03
2018-12-07T11:15:50.512Z,70.05
2018-12-07T11:18:31.414Z,70.05
2018-12-07T11:21:14.816Z,71.19
2018-12-07T11:24:00.568Z,71.98
2018-12-07T11:26:41.736Z,71.91
2018-12-07T11:29:22.806Z,72.85
2018-12-07T11:32:03.690Z,74.01
2018-12-07T11:37:27.135Z,74.47
2018-12-07T11:40:03.947Z,73.21
2018-12-07T11:42:39.813Z,73.41
2018-12-07T11:45:15.629Z,74.21
2018-12-07T11:47:51.988Z,75.14
2018-12-07T11:50:28.018Z,73.90
2018-12-07T11:53:04.099Z,73.29
2018-12-07T11:55:41.077Z,72.31
2018-12-07T11:58:18.740Z,74.63
2018-12-07T12:00:57.026Z,72.72
2018-12-07T12:03:32.869Z,72.87
2018-12-07T12:06:08.888Z,69.87
2018-12-07T12:08:44.895Z,67.44
2018-12-07T12:11:20.730Z,66.98
2018-12-07T12:13:58.268Z,69.38
2018-12-07T12:16:34.267Z,70.03
2018-12-07T12:19:10.830Z,70.84
2018-12-07T12:21:46.866Z,72.81
2018-12-07T12:24:22.926Z,72.75
2018-12-07T12:26:58.882Z,73.13
2018-12-07T12:29:34.629Z,71.33
2018-12-07T12:32:10.612Z,71.62
2018-12-07T12:34:46.722Z,71.55
2018-12-07T12:37:22.678Z,73.70
2018-12-07T12:39:58.465Z,71.82
2018-12-07T12:42:34.186Z,72.05
2018-12-07T12:45:10.316Z,71.29
2018-12-07T12:47:46.137Z,71.00
2018-12-07T12:50:27.172Z,72.29
2018-12-07T12:53:03.165Z,70.66
2018-12-07T12:55:39.065Z,69.36
2018-12-07T12:58:14.940Z,72.23
2018-12-07T13:00:50.711Z,71.49
2018-12-07T13:03:26.814Z,70.27
2018-12-07T13:06:02.566Z,69.36
2018-12-07T13:08:38.372Z,69.00
2018-12-07T13:11:14.292Z,70.52
2018-12-07T13:13:50.989Z,68.84
2018-12-07T13:16:26.662Z,68.75
2018-12-07T13:19:05.057Z,68.21
2018-12-07T13:21:40.989Z,67.49
2018-12-07T13:24:16.835Z,67.30
2018-12-07T13:26:52.856Z,69.95
2018-12-07T13:29:28.608Z,67.25
2018-12-07T13:32:04.512Z,68.99
2018-12-07T13:34:40.305Z,65.08
2018-12-07T13:37:17.177Z,67.22
2018-12-07T13:39:54.079Z,66.56
2018-12-07T13:42:29.949Z,66.41
2018-12-07T13:45:07.455Z,66.46
2018-12-07T13:47:43.847Z,67.26
2018-12-07T13:50:24.981Z,67.41
2018-12-07T13:53:02.605Z,69.58
2018-12-07T13:55:38.988Z,65.61
2018-12-07T13:58:14.921Z,67.71
2018-12-07T14:00:54.939Z,66.91
2018-12-07T14:03:30.872Z,69.03
2018-12-07T14:06:06.875Z,69.17
2018-12-07T14:08:42.848Z,69.04
2018-12-07T14:11:19.307Z,66.75
2018-12-07T14:13:55.161Z,66.50
2018-12-07T14:19:11.526Z,68.09
2018-12-07T14:21:47.309Z,65.00
2018-12-07T14:24:23.407Z,66.34
2018-12-07T14:26:59.704Z,65.15
2018-12-07T14:29:35.995Z,66.58
2018-12-07T14:32:11.890Z,67.51
2018-12-07T14:34:47.808Z,68.85
2018-12-07T14:37:23.911Z,66.47
2018-12-07T14:39:59.869Z,67.73
2018-12-07T14:42:35.977Z,69.08
2018-12-07T14:45:13.472Z,69.83
2018-12-07T14:47:49.355Z,71.40
2018-12-07T14:50:25.136Z,70.95
2018-12-07T14:53:01.102Z,72.83
2018-12-07T14:55:37.142Z,71.05
2018-12-07T14:58:13.421Z,72.03
2018-12-07T15:00:49.582Z,70.48
2018-12-07T15:03:25.569Z,72.27
2018-12-07T15:06:01.407Z,72.55
2018-12-07T15:08:37.302Z,73.23
2018-12-07T15:11:13.253Z,72.30
2018-12-07T15:13:49.574Z,73.43
2018-12-07T15:16:26.046Z,74.49
2018-12-07T15:19:01.907Z,75.59
2018-12-07T15:21:38.002Z,75.44
2018-12-07T15:24:14.335Z,76.19
2018-12-07T15:26:50.603Z,77.08
2018-12-07T15:29:26.562Z,76.97
2018-12-07T15:32:02.589Z,77.13
2018-12-07T15:34:38.651Z,76.91
2018-12-07T15:37:14.638Z,78.26
2018-12-07T15:39:50.471Z,78.30
2018-12-07T15:42:26.339Z,78.60
2018-12-07T15:45:02.550Z,78.81
2018-12-07T15:47:39.358Z,78.02
2018-12-07T15:50:15.319Z,78.76
2018-12-07T15:52:51.180Z,79.08
2018-12-07T15:55:27.090Z,79.30
2018-12-07T15:58:03.300Z,79.55
2018-12-07T16:00:39.435Z,79.35
2018-12-07T16:03:15.236Z,79.51
2018-12-07T16:05:51.106Z,79.40
2018-12-07T16:08:27.242Z,80.48
2018-12-07T16:11:04.287Z,79.35
2018-12-07T16:13:40.269Z,78.54
2018-12-07T16:16:16.323Z,76.59
2018-12-07T16:18:52.349Z,76.87
2018-12-07T16:21:28.479Z,77.03
2018-12-07T16:24:04.593Z,76.80
2018-12-07T16:26:40.454Z,76.73
2018-12-07T16:29:16.680Z,77.10
2018-12-07T16:31:52.661Z,75.13
2018-12-07T16:34:28.632Z,76.10
2018-12-07T16:37:04.573Z,75.69
2018-12-07T16:39:40.652Z,75.73
2018-12-07T16:42:17.281Z,75.08
2018-12-07T16:44:53.584Z,76.46
2018-12-07T16:47:29.593Z,75.91
2018-12-07T16:50:07.967Z,75.84
2018-12-07T16:52:44.047Z,75.53
2018-12-07T16:55:20.922Z,75.64
2018-12-07T16:57:57.258Z,76.07
2018-12-07T17:00:33.751Z,76.57
2018-12-07T17:03:09.739Z,76.22
2018-12-07T17:05:46.070Z,77.16
2018-12-07T17:08:22.080Z,78.55
2018-12-07T17:10:58.290Z,78.99
2018-12-07T17:13:34.164Z,79.39
2018-12-07T17:17:07.776Z,79.52
2018-12-07T17:19:44.084Z,79.57
2018-12-07T17:22:20.140Z,79.87
2018-12-07T17:24:56.092Z,80.57
2018-12-07T17:27:32.285Z,78.76
2018-12-07T17:30:09.413Z,79.34
2018-12-07T17:32:45.465Z,80.72
2018-12-07T17:35:21.510Z,81.66
2018-12-07T17:37:58.230Z,81.49
2018-12-07T17:40:34.065Z,81.87
2018-12-07T17:43:09.952Z,77.28
2018-12-07T17:45:45.884Z,78.17
2018-12-07T17:48:21.745Z,80.05
2018-12-07T17:50:57.936Z,79.06
2018-12-07T17:53:33.757Z,80.60
2018-12-07T17:56:09.781Z,76.98
2018-12-07T17:58:45.748Z,76.63
2018-12-07T18:01:21.508Z,74.55
2018-12-07T18:03:58.145Z,73.80
2018-12-07T18:06:33.873Z,73.29
2018-12-07T18:09:10.993Z,72.36
2018-12-07T18:11:46.919Z,73.85
2018-12-07T18:14:22.638Z,73.25
2018-12-07T18:16:58.467Z,76.25
2018-12-07T18:19:34.389Z,75.97
2018-12-07T18:22:10.370Z,76.37
2018-12-07T18:24:46.250Z,77.20
2018-12-07T18:27:22.169Z,76.27
2018-12-07T18:29:58.381Z,75.69
2018-12-07T18:32:34.251Z,76.31
2018-12-07T18:35:10.322Z,74.49
2018-12-07T18:37:46.403Z,75.36
2018-12-07T18:40:22.371Z,73.69
2018-12-07T18:42:58.369Z,74.61
2018-12-07T18:45:34.599Z,75.76
2018-12-07T18:48:10.861Z,76.01
2018-12-07T18:50:47.236Z,74.83
2018-12-07T18:53:22.968Z,74.41
2018-12-07T18:55:58.949Z,72.55
2018-12-07T18:58:35.142Z,73.13
2018-12-07T19:01:11.111Z,73.60
2018-12-07T19:03:46.975Z,74.63
2018-12-07T19:06:23.075Z,75.57
2018-12-07T19:08:58.819Z,74.26
2018-12-07T19:11:34.953Z,75.00
2018-12-07T19:14:11.090Z,73.65
2018-12-07T19:16:46.826Z,73.56
2018-12-07T19:19:22.946Z,74.04
2018-12-07T19:21:58.725Z,76.17
2018-12-07T19:24:34.733Z,75.29
2018-12-07T19:27:10.996Z,75.29
2018-12-07T19:29:46.948Z,75.98
2018-12-07T19:32:23.349Z,75.97
2018-12-07T19:34:59.225Z,76.95
2018-12-07T19:37:35.149Z,75.74
2018-12-07T19:40:11.251Z,76.32
2018-12-07T19:42:47.169Z,76.08
2018-12-07T19:45:24.698Z,76.90
2018-12-07T19:48:00.541Z,77.92
2018-12-07T19:50:36.590Z,79.97
2018-12-07T19:53:12.390Z,79.41
2018-12-07T19:55:48.183Z,82.33
2018-12-07T19:58:24.079Z,82.06
2018-12-07T20:01:00.327Z,85.06
2018-12-07T20:03:36.188Z,85.35
2018-12-07T20:06:12.048Z,81.47
2018-12-07T20:08:47.838Z,80.25
2018-12-07T20:11:23.667Z,79.50
2018-12-07T20:13:59.384Z,80.64
2018-12-07T20:16:35.419Z,76.40
2018-12-07T20:19:11.356Z,75.24
2018-12-07T20:21:47.223Z,75.30
2018-12-07T20:24:23.430Z,76.02
2018-12-07T20:26:59.477Z,75.62
2018-12-07T20:29:35.786Z,75.25
2018-12-07T20:32:11.636Z,76.19
2018-12-07T20:34:47.319Z,74.75
2018-12-07T20:37:23.230Z,76.48
2018-12-07T20:43:06.599Z,76.45
2018-12-07T20:45:42.377Z,77.95
2018-12-07T20:48:19.044Z,78.31
2018-12-07T20:50:55.038Z,79.57
2018-12-07T20:53:32.485Z,79.35
2018-12-07T20:56:08.384Z,79.99
2018-12-07T20:58:45.488Z,79.39
2018-12-07T21:01:22.376Z,79.13
2018-12-07T21:04:41.671Z,80.70
2018-12-07T21:07:40.419Z,82.96
2018-12-07T21:15:44.344Z,85.77
2018-12-07T21:18:20.174Z,85.68
2018-12-07T21:20:56.348Z,86.14
2018-12-07T21:23:32.414Z,87.35
2018-12-07T21:26:08.257Z,86.71
2018-12-07T21:28:44.207Z,85.73
2018-12-07T21:31:19.991Z,86.11
2018-12-07T21:34:10.368Z,86.74
2018-12-07T21:36:46.997Z,85.72
2018-12-07T21:39:39.622Z,83.44
2018-12-07T21:42:15.588Z,84.49
2018-12-07T21:44:51.521Z,84.37
2018-12-07T21:48:49.646Z,85.56
2018-12-07T21:52:44.399Z,84.36
2018-12-07T21:55:21.227Z,85.44
2018-12-07T21:57:57.304Z,86.14
2018-12-07T22:00:33.283Z,85.50
2018-12-07T22:03:09.830Z,84.32
2018-12-07T22:05:45.440Z,83.54
2018-12-07T22:08:21.801Z,83.45
2018-12-07T22:10:57.967Z,82.42
2018-12-07T22:13:34.225Z,83.13
2018-12-07T22:16:10.990Z,83.73
2018-12-07T22:18:46.670Z,82.70
2018-12-07T22:21:23.482Z,82.92
2018-12-07T22:23:59.373Z,82.70
2018-12-07T22:26:35.015Z,82.96
2018-12-07T22:29:10.693Z,82.73
2018-12-07T22:31:46.570Z,82.94
2018-12-07T22:34:22.422Z,83.10
2018-12-07T22:36:58.122Z,82.95
2018-12-07T22:39:34.020Z,83.26
2018-12-07T22:42:09.855Z,82.96
2018-12-07T22:44:46.648Z,83.50
2018-12-07T22:47:22.235Z,82.02
2018-12-07T22:49:57.804Z,81.55
2018-12-07T22:52:33.441Z,81.37
2018-12-07T22:55:09.523Z,81.44
2018-12-07T22:57:45.077Z,79.97
2018-12-07T23:00:22.368Z,80.78
2018-12-07T23:02:58.058Z,81.19
2018-12-07T23:05:33.705Z,81.46
2018-12-07T23:08:09.332Z,82.33
2018-12-07T23:13:26.579Z,81.07
2018-12-07T23:16:02.409Z,80.76
2018-12-07T23:18:38.114Z,80.80
2018-12-07T23:21:13.952Z,81.85
2018-12-07T23:23:49.540Z,81.27
2018-12-07T23:26:25.145Z,82.01
2018-12-07T23:29:00.845Z,81.72
2018-12-07T23:31:36.613Z,82.81
2018-12-07T23:34:12.546Z,82.68
2018-12-07T23:36:48.310Z,79.38
2018-12-07T23:39:23.951Z,80.21
2018-12-07T23:41:59.537Z,79.28
2018-12-07T23:44:35.261Z,78.36
2018-12-07T23:47:10.815Z,79.80
2018-12-07T23:52:30.748Z,79.24
2018-12-07T23:55:06.873Z,78.54
2018-12-07T23:57:42.715Z,78.12
